sensor_id;sensor_type;location;lat;lon;timestamp;P1;durP1;ratioP1;P2;durP2;ratioP2
25752;SDS011;13600;50.816;4.416;2023-06-19T00:01:57;7.25;;;4.55;;
25752;SDS011;13600;50.816;4.416;2023-06-19T00:04:23;8.50;;;4.63;;
25752;SDS011;13600;50.816;4.416;2023-06-19T00:06:49;7.82;;;4.25;;
25752;SDS011;13600;50.816;4.416;2023-06-19T00:09:14;7.15;;;4.22;;
25752;SDS011;13600;50.816;4.416;2023-06-19T00:11:41;6.35;;;3.85;;
25752;SDS011;13600;50.816;4.416;2023-06-19T00:14:07;7.72;;;4.40;;
25752;SDS011;13600;50.816;4.416;2023-06-19T00:16:32;6.03;;;4.53;;
25752;SDS011;13600;50.816;4.416;2023-06-19T00:18:59;5.93;;;4.55;;
25752;SDS011;13600;50.816;4.416;2023-06-19T00:21:28;6.43;;;4.43;;
25752;SDS011;13600;50.816;4.416;2023-06-19T00:23:54;5.38;;;4.20;;
25752;SDS011;13600;50.816;4.416;2023-06-19T00:26:20;6.10;;;4.15;;
25752;SDS011;13600;50.816;4.416;2023-06-19T00:28:50;7.03;;;4.10;;
25752;SDS011;13600;50.816;4.416;2023-06-19T00:31:18;6.60;;;4.18;;
25752;SDS011;13600;50.816;4.416;2023-06-19T00:33:44;7.25;;;4.30;;
25752;SDS011;13600;50.816;4.416;2023-06-19T00:36:14;6.88;;;4.05;;
25752;SDS011;13600;50.816;4.416;2023-06-19T00:38:41;6.82;;;4.20;;
25752;SDS011;13600;50.816;4.416;2023-06-19T00:41:07;8.52;;;3.83;;
25752;SDS011;13600;50.816;4.416;2023-06-19T00:43:33;8.35;;;3.78;;
25752;SDS011;13600;50.816;4.416;2023-06-19T00:46:01;4.45;;;3.33;;
25752;SDS011;13600;50.816;4.416;2023-06-19T00:48:28;7.97;;;3.88;;
25752;SDS011;13600;50.816;4.416;2023-06-19T00:50:56;10.15;;;3.47;;
25752;SDS011;13600;50.816;4.416;2023-06-19T00:53:23;4.57;;;3.42;;
25752;SDS011;13600;50.816;4.416;2023-06-19T00:55:50;5.80;;;3.60;;
25752;SDS011;13600;50.816;4.416;2023-06-19T00:58:20;5.63;;;3.47;;
25752;SDS011;13600;50.816;4.416;2023-06-19T01:00:47;7.25;;;3.95;;
25752;SDS011;13600;50.816;4.416;2023-06-19T01:03:13;5.15;;;3.78;;
25752;SDS011;13600;50.816;4.416;2023-06-19T01:05:40;6.70;;;3.85;;
25752;SDS011;13600;50.816;4.416;2023-06-19T01:10:53;6.47;;;3.88;;
25752;SDS011;13600;50.816;4.416;2023-06-19T01:16:06;6.72;;;4.03;;
25752;SDS011;13600;50.816;4.416;2023-06-19T01:18:32;7.43;;;3.90;;
25752;SDS011;13600;50.816;4.416;2023-06-19T01:21:12;7.80;;;3.88;;
25752;SDS011;13600;50.816;4.416;2023-06-19T01:23:38;8.80;;;4.35;;
25752;SDS011;13600;50.816;4.416;2023-06-19T01:26:05;6.93;;;4.35;;
25752;SDS011;13600;50.816;4.416;2023-06-19T01:28:32;6.60;;;3.92;;
25752;SDS011;13600;50.816;4.416;2023-06-19T01:30:59;7.55;;;4.20;;
25752;SDS011;13600;50.816;4.416;2023-06-19T01:33:27;9.43;;;4.45;;
25752;SDS011;13600;50.816;4.416;2023-06-19T01:35:55;8.10;;;4.30;;
25752;SDS011;13600;50.816;4.416;2023-06-19T01:38:23;7.05;;;4.55;;
25752;SDS011;13600;50.816;4.416;2023-06-19T01:40:52;6.88;;;4.60;;
25752;SDS011;13600;50.816;4.416;2023-06-19T01:43:19;7.22;;;4.55;;
25752;SDS011;13600;50.816;4.416;2023-06-19T01:45:45;6.93;;;4.65;;
25752;SDS011;13600;50.816;4.416;2023-06-19T01:48:11;6.28;;;4.60;;
25752;SDS011;13600;50.816;4.416;2023-06-19T01:50:36;11.38;;;5.30;;
25752;SDS011;13600;50.816;4.416;2023-06-19T01:53:02;9.95;;;5.20;;
25752;SDS011;13600;50.816;4.416;2023-06-19T01:55:28;8.93;;;5.10;;
25752;SDS011;13600;50.816;4.416;2023-06-19T01:57:53;7.68;;;5.22;;
25752;SDS011;13600;50.816;4.416;2023-06-19T02:00:19;8.73;;;4.50;;
25752;SDS011;13600;50.816;4.416;2023-06-19T02:02:45;6.75;;;4.47;;
25752;SDS011;13600;50.816;4.416;2023-06-19T02:05:10;9.15;;;5.03;;
25752;SDS011;13600;50.816;4.416;2023-06-19T02:07:36;7.30;;;4.45;;
25752;SDS011;13600;50.816;4.416;2023-06-19T02:10:02;8.98;;;5.10;;
25752;SDS011;13600;50.816;4.416;2023-06-19T02:12:28;8.80;;;5.40;;
25752;SDS011;13600;50.816;4.416;2023-06-19T02:14:53;9.38;;;5.18;;
25752;SDS011;13600;50.816;4.416;2023-06-19T02:17:19;9.43;;;5.13;;
25752;SDS011;13600;50.816;4.416;2023-06-19T02:19:44;11.15;;;5.65;;
25752;SDS011;13600;50.816;4.416;2023-06-19T02:22:10;9.57;;;4.82;;
25752;SDS011;13600;50.816;4.416;2023-06-19T02:24:36;9.70;;;4.55;;
25752;SDS011;13600;50.816;4.416;2023-06-19T02:27:02;7.22;;;4.97;;
25752;SDS011;13600;50.816;4.416;2023-06-19T02:29:27;6.22;;;4.75;;
25752;SDS011;13600;50.816;4.416;2023-06-19T02:31:55;7.68;;;5.50;;
25752;SDS011;13600;50.816;4.416;2023-06-19T02:34:20;10.73;;;5.43;;
25752;SDS011;13600;50.816;4.416;2023-06-19T02:36:49;12.32;;;5.15;;
25752;SDS011;13600;50.816;4.416;2023-06-19T02:39:15;7.72;;;5.38;;
25752;SDS011;13600;50.816;4.416;2023-06-19T02:41:41;10.07;;;5.35;;
25752;SDS011;13600;50.816;4.416;2023-06-19T02:44:11;9.77;;;6.28;;
25752;SDS011;13600;50.816;4.416;2023-06-19T02:46:39;10.88;;;6.30;;
25752;SDS011;13600;50.816;4.416;2023-06-19T02:49:05;9.68;;;6.50;;
25752;SDS011;13600;50.816;4.416;2023-06-19T02:51:31;11.57;;;6.55;;
25752;SDS011;13600;50.816;4.416;2023-06-19T02:53:56;8.65;;;6.85;;
25752;SDS011;13600;50.816;4.416;2023-06-19T02:56:22;13.27;;;7.68;;
25752;SDS011;13600;50.816;4.416;2023-06-19T02:58:49;8.70;;;6.72;;
25752;SDS011;13600;50.816;4.416;2023-06-19T03:01:14;11.40;;;7.00;;
25752;SDS011;13600;50.816;4.416;2023-06-19T03:03:40;14.00;;;7.88;;
25752;SDS011;13600;50.816;4.416;2023-06-19T03:06:06;11.43;;;7.65;;
25752;SDS011;13600;50.816;4.416;2023-06-19T03:08:36;13.10;;;7.40;;
25752;SDS011;13600;50.816;4.416;2023-06-19T03:11:02;14.45;;;8.23;;
25752;SDS011;13600;50.816;4.416;2023-06-19T03:13:51;11.68;;;8.70;;
25752;SDS011;13600;50.816;4.416;2023-06-19T03:16:17;10.68;;;8.68;;
25752;SDS011;13600;50.816;4.416;2023-06-19T03:18:44;13.75;;;10.50;;
25752;SDS011;13600;50.816;4.416;2023-06-19T03:21:10;12.13;;;10.00;;
25752;SDS011;13600;50.816;4.416;2023-06-19T03:23:36;11.93;;;10.57;;
25752;SDS011;13600;50.816;4.416;2023-06-19T03:26:02;11.63;;;10.00;;
25752;SDS011;13600;50.816;4.416;2023-06-19T03:28:28;12.27;;;9.77;;
25752;SDS011;13600;50.816;4.416;2023-06-19T03:30:54;13.05;;;9.00;;
25752;SDS011;13600;50.816;4.416;2023-06-19T03:33:20;13.02;;;9.32;;
25752;SDS011;13600;50.816;4.416;2023-06-19T03:35:45;11.60;;;9.48;;
25752;SDS011;13600;50.816;4.416;2023-06-19T03:38:11;14.52;;;9.55;;
25752;SDS011;13600;50.816;4.416;2023-06-19T03:40:37;15.93;;;9.90;;
25752;SDS011;13600;50.816;4.416;2023-06-19T03:43:02;11.82;;;9.80;;
25752;SDS011;13600;50.816;4.416;2023-06-19T03:45:28;18.90;;;14.07;;
25752;SDS011;13600;50.816;4.416;2023-06-19T03:47:53;19.58;;;15.25;;
25752;SDS011;13600;50.816;4.416;2023-06-19T03:50:19;21.10;;;15.30;;
25752;SDS011;13600;50.816;4.416;2023-06-19T03:52:45;19.23;;;14.35;;
25752;SDS011;13600;50.816;4.416;2023-06-19T03:55:10;20.08;;;14.52;;
25752;SDS011;13600;50.816;4.416;2023-06-19T03:57:36;19.02;;;13.77;;
25752;SDS011;13600;50.816;4.416;2023-06-19T04:00:02;18.95;;;13.63;;
25752;SDS011;13600;50.816;4.416;2023-06-19T04:02:32;16.77;;;12.70;;
25752;SDS011;13600;50.816;4.416;2023-06-19T04:05:01;17.27;;;12.90;;
25752;SDS011;13600;50.816;4.416;2023-06-19T04:07:27;20.35;;;12.93;;
25752;SDS011;13600;50.816;4.416;2023-06-19T04:09:53;18.65;;;12.43;;
25752;SDS011;13600;50.816;4.416;2023-06-19T04:12:19;15.18;;;12.30;;
25752;SDS011;13600;50.816;4.416;2023-06-19T04:14:44;16.98;;;12.35;;
25752;SDS011;13600;50.816;4.416;2023-06-19T04:17:10;17.02;;;12.07;;
25752;SDS011;13600;50.816;4.416;2023-06-19T04:19:37;15.13;;;12.13;;
25752;SDS011;13600;50.816;4.416;2023-06-19T04:22:02;15.80;;;12.20;;
25752;SDS011;13600;50.816;4.416;2023-06-19T04:24:28;17.00;;;13.07;;
25752;SDS011;13600;50.816;4.416;2023-06-19T04:26:54;19.77;;;14.05;;
25752;SDS011;13600;50.816;4.416;2023-06-19T04:29:19;17.05;;;12.80;;
25752;SDS011;13600;50.816;4.416;2023-06-19T04:31:45;17.67;;;12.85;;
25752;SDS011;13600;50.816;4.416;2023-06-19T04:34:17;20.25;;;13.63;;
25752;SDS011;13600;50.816;4.416;2023-06-19T04:36:47;17.90;;;13.05;;
25752;SDS011;13600;50.816;4.416;2023-06-19T04:39:13;19.67;;;13.27;;
25752;SDS011;13600;50.816;4.416;2023-06-19T04:41:40;18.67;;;13.20;;
25752;SDS011;13600;50.816;4.416;2023-06-19T04:44:06;17.42;;;13.00;;
25752;SDS011;13600;50.816;4.416;2023-06-19T04:46:32;20.33;;;14.23;;
25752;SDS011;13600;50.816;4.416;2023-06-19T04:48:58;18.85;;;14.18;;
25752;SDS011;13600;50.816;4.416;2023-06-19T04:51:24;17.95;;;13.95;;
25752;SDS011;13600;50.816;4.416;2023-06-19T04:53:51;17.90;;;13.82;;
25752;SDS011;13600;50.816;4.416;2023-06-19T04:56:17;17.38;;;14.07;;
25752;SDS011;13600;50.816;4.416;2023-06-19T04:58:43;21.17;;;14.38;;
25752;SDS011;13600;50.816;4.416;2023-06-19T05:01:15;15.68;;;12.98;;
25752;SDS011;13600;50.816;4.416;2023-06-19T05:03:42;18.67;;;13.10;;
25752;SDS011;13600;50.816;4.416;2023-06-19T05:06:08;14.57;;;11.80;;
25752;SDS011;13600;50.816;4.416;2023-06-19T05:08:34;21.65;;;12.55;;
25752;SDS011;13600;50.816;4.416;2023-06-19T05:11:00;17.90;;;12.35;;
25752;SDS011;13600;50.816;4.416;2023-06-19T05:13:25;15.43;;;11.57;;
25752;SDS011;13600;50.816;4.416;2023-06-19T05:15:51;15.30;;;11.50;;
25752;SDS011;13600;50.816;4.416;2023-06-19T05:18:17;21.02;;;12.50;;
25752;SDS011;13600;50.816;4.416;2023-06-19T05:20:43;15.02;;;11.57;;
25752;SDS011;13600;50.816;4.416;2023-06-19T05:23:09;16.58;;;11.63;;
25752;SDS011;13600;50.816;4.416;2023-06-19T05:25:34;20.80;;;11.73;;
25752;SDS011;13600;50.816;4.416;2023-06-19T05:28:00;19.50;;;12.02;;
25752;SDS011;13600;50.816;4.416;2023-06-19T05:30:26;18.17;;;12.32;;
25752;SDS011;13600;50.816;4.416;2023-06-19T05:32:51;19.08;;;12.60;;
25752;SDS011;13600;50.816;4.416;2023-06-19T05:35:17;19.10;;;12.82;;
25752;SDS011;13600;50.816;4.416;2023-06-19T05:37:43;17.45;;;12.52;;
25752;SDS011;13600;50.816;4.416;2023-06-19T05:40:09;16.70;;;12.07;;
25752;SDS011;13600;50.816;4.416;2023-06-19T05:42:35;16.27;;;12.55;;
25752;SDS011;13600;50.816;4.416;2023-06-19T05:45:02;15.63;;;11.88;;
25752;SDS011;13600;50.816;4.416;2023-06-19T05:47:28;16.23;;;11.27;;
25752;SDS011;13600;50.816;4.416;2023-06-19T05:49:56;19.05;;;10.88;;
25752;SDS011;13600;50.816;4.416;2023-06-19T05:52:21;17.55;;;11.18;;
25752;SDS011;13600;50.816;4.416;2023-06-19T05:54:47;15.23;;;11.25;;
25752;SDS011;13600;50.816;4.416;2023-06-19T05:57:13;15.38;;;11.05;;
25752;SDS011;13600;50.816;4.416;2023-06-19T05:59:41;19.25;;;12.25;;
25752;SDS011;13600;50.816;4.416;2023-06-19T06:02:07;17.60;;;13.63;;
25752;SDS011;13600;50.816;4.416;2023-06-19T06:04:33;21.38;;;13.63;;
25752;SDS011;13600;50.816;4.416;2023-06-19T06:07:00;21.20;;;13.02;;
25752;SDS011;13600;50.816;4.416;2023-06-19T06:09:26;18.30;;;13.65;;
25752;SDS011;13600;50.816;4.416;2023-06-19T06:11:52;20.13;;;13.93;;
25752;SDS011;13600;50.816;4.416;2023-06-19T06:14:17;19.52;;;12.98;;
25752;SDS011;13600;50.816;4.416;2023-06-19T06:16:43;22.02;;;14.02;;
25752;SDS011;13600;50.816;4.416;2023-06-19T06:19:09;19.65;;;13.80;;
25752;SDS011;13600;50.816;4.416;2023-06-19T06:21:35;22.95;;;14.60;;
25752;SDS011;13600;50.816;4.416;2023-06-19T06:24:00;19.27;;;13.77;;
25752;SDS011;13600;50.816;4.416;2023-06-19T06:26:26;21.80;;;14.50;;
25752;SDS011;13600;50.816;4.416;2023-06-19T06:28:53;22.67;;;17.05;;
25752;SDS011;13600;50.816;4.416;2023-06-19T06:31:18;25.77;;;18.35;;
25752;SDS011;13600;50.816;4.416;2023-06-19T06:33:44;21.52;;;17.65;;
25752;SDS011;13600;50.816;4.416;2023-06-19T06:36:10;24.23;;;18.10;;
25752;SDS011;13600;50.816;4.416;2023-06-19T06:38:36;20.10;;;16.65;;
25752;SDS011;13600;50.816;4.416;2023-06-19T06:41:01;23.60;;;16.80;;
25752;SDS011;13600;50.816;4.416;2023-06-19T06:43:27;21.88;;;16.65;;
25752;SDS011;13600;50.816;4.416;2023-06-19T06:45:53;23.15;;;16.30;;
25752;SDS011;13600;50.816;4.416;2023-06-19T06:48:18;23.98;;;15.35;;
25752;SDS011;13600;50.816;4.416;2023-06-19T06:50:46;19.83;;;14.73;;
25752;SDS011;13600;50.816;4.416;2023-06-19T06:53:12;18.45;;;14.18;;
25752;SDS011;13600;50.816;4.416;2023-06-19T06:55:38;17.90;;;14.57;;
25752;SDS011;13600;50.816;4.416;2023-06-19T06:58:04;23.48;;;14.57;;
25752;SDS011;13600;50.816;4.416;2023-06-19T07:00:30;22.27;;;14.27;;
25752;SDS011;13600;50.816;4.416;2023-06-19T07:02:56;20.40;;;13.57;;
25752;SDS011;13600;50.816;4.416;2023-06-19T07:05:22;22.88;;;13.68;;
25752;SDS011;13600;50.816;4.416;2023-06-19T07:07:47;18.48;;;13.43;;
25752;SDS011;13600;50.816;4.416;2023-06-19T07:10:13;15.57;;;12.77;;
25752;SDS011;13600;50.816;4.416;2023-06-19T07:12:48;19.42;;;13.13;;
25752;SDS011;13600;50.816;4.416;2023-06-19T07:15:13;19.67;;;12.80;;
25752;SDS011;13600;50.816;4.416;2023-06-19T07:17:39;15.43;;;12.50;;
25752;SDS011;13600;50.816;4.416;2023-06-19T07:20:05;17.92;;;11.55;;
25752;SDS011;13600;50.816;4.416;2023-06-19T07:22:31;15.93;;;12.45;;
25752;SDS011;13600;50.816;4.416;2023-06-19T07:24:57;21.48;;;12.23;;
25752;SDS011;13600;50.816;4.416;2023-06-19T07:27:23;17.80;;;12.35;;
25752;SDS011;13600;50.816;4.416;2023-06-19T07:29:52;18.55;;;12.05;;
25752;SDS011;13600;50.816;4.416;2023-06-19T07:32:19;17.15;;;11.65;;
25752;SDS011;13600;50.816;4.416;2023-06-19T07:34:45;16.90;;;11.68;;
25752;SDS011;13600;50.816;4.416;2023-06-19T07:37:11;17.10;;;10.70;;
25752;SDS011;13600;50.816;4.416;2023-06-19T07:39:42;16.23;;;10.60;;
25752;SDS011;13600;50.816;4.416;2023-06-19T07:42:12;14.98;;;10.60;;
25752;SDS011;13600;50.816;4.416;2023-06-19T07:44:40;17.15;;;10.13;;
25752;SDS011;13600;50.816;4.416;2023-06-19T07:47:07;14.55;;;10.65;;
25752;SDS011;13600;50.816;4.416;2023-06-19T07:49:33;15.68;;;10.52;;
25752;SDS011;13600;50.816;4.416;2023-06-19T07:51:59;13.98;;;9.90;;
25752;SDS011;13600;50.816;4.416;2023-06-19T07:54:24;16.52;;;10.55;;
25752;SDS011;13600;50.816;4.416;2023-06-19T07:56:50;17.05;;;11.00;;
25752;SDS011;13600;50.816;4.416;2023-06-19T07:59:15;18.15;;;10.40;;
25752;SDS011;13600;50.816;4.416;2023-06-19T08:01:42;27.90;;;11.25;;
25752;SDS011;13600;50.816;4.416;2023-06-19T08:04:08;15.30;;;10.43;;
25752;SDS011;13600;50.816;4.416;2023-06-19T08:06:33;18.25;;;10.45;;
25752;SDS011;13600;50.816;4.416;2023-06-19T08:08:59;14.65;;;9.82;;
25752;SDS011;13600;50.816;4.416;2023-06-19T08:11:25;15.10;;;9.15;;
25752;SDS011;13600;50.816;4.416;2023-06-19T08:13:51;16.25;;;9.88;;
25752;SDS011;13600;50.816;4.416;2023-06-19T08:16:16;15.32;;;9.45;;
25752;SDS011;13600;50.816;4.416;2023-06-19T08:18:43;14.18;;;9.57;;
25752;SDS011;13600;50.816;4.416;2023-06-19T08:21:09;16.92;;;10.00;;
25752;SDS011;13600;50.816;4.416;2023-06-19T08:23:35;15.20;;;9.40;;
25752;SDS011;13600;50.816;4.416;2023-06-19T08:26:01;15.65;;;9.88;;
25752;SDS011;13600;50.816;4.416;2023-06-19T08:28:27;15.02;;;9.70;;
25752;SDS011;13600;50.816;4.416;2023-06-19T08:30:52;13.88;;;9.80;;
25752;SDS011;13600;50.816;4.416;2023-06-19T08:33:18;13.18;;;9.70;;
25752;SDS011;13600;50.816;4.416;2023-06-19T08:35:44;10.70;;;8.70;;
25752;SDS011;13600;50.816;4.416;2023-06-19T08:38:11;10.73;;;7.93;;
25752;SDS011;13600;50.816;4.416;2023-06-19T08:40:37;12.43;;;7.60;;
25752;SDS011;13600;50.816;4.416;2023-06-19T08:43:02;11.18;;;8.18;;
25752;SDS011;13600;50.816;4.416;2023-06-19T08:45:28;14.07;;;6.93;;
25752;SDS011;13600;50.816;4.416;2023-06-19T08:47:57;8.85;;;7.43;;
25752;SDS011;13600;50.816;4.416;2023-06-19T08:50:24;13.77;;;8.18;;
25752;SDS011;13600;50.816;4.416;2023-06-19T08:52:50;13.18;;;7.97;;
25752;SDS011;13600;50.816;4.416;2023-06-19T08:55:16;9.13;;;7.15;;
25752;SDS011;13600;50.816;4.416;2023-06-19T08:57:42;12.52;;;8.40;;
25752;SDS011;13600;50.816;4.416;2023-06-19T09:00:08;14.90;;;8.18;;
25752;SDS011;13600;50.816;4.416;2023-06-19T09:02:45;12.07;;;7.57;;
25752;SDS011;13600;50.816;4.416;2023-06-19T09:05:15;10.43;;;8.15;;
25752;SDS011;13600;50.816;4.416;2023-06-19T09:07:54;12.77;;;8.82;;
25752;SDS011;13600;50.816;4.416;2023-06-19T09:10:22;13.48;;;9.30;;
25752;SDS011;13600;50.816;4.416;2023-06-19T09:15:26;13.75;;;8.88;;
25752;SDS011;13600;50.816;4.416;2023-06-19T09:18:00;13.40;;;9.18;;
25752;SDS011;13600;50.816;4.416;2023-06-19T09:20:29;14.75;;;9.60;;
25752;SDS011;13600;50.816;4.416;2023-06-19T09:22:55;17.55;;;9.15;;
25752;SDS011;13600;50.816;4.416;2023-06-19T09:25:21;13.23;;;8.93;;
25752;SDS011;13600;50.816;4.416;2023-06-19T09:27:48;12.10;;;8.45;;
25752;SDS011;13600;50.816;4.416;2023-06-19T09:30:17;16.50;;;8.75;;
25752;SDS011;13600;50.816;4.416;2023-06-19T09:32:43;11.23;;;8.40;;
25752;SDS011;13600;50.816;4.416;2023-06-19T09:35:08;11.60;;;7.53;;
25752;SDS011;13600;50.816;4.416;2023-06-19T09:37:34;9.93;;;7.55;;
25752;SDS011;13600;50.816;4.416;2023-06-19T09:40:03;15.85;;;8.45;;
25752;SDS011;13600;50.816;4.416;2023-06-19T09:42:36;12.60;;;8.48;;
25752;SDS011;13600;50.816;4.416;2023-06-19T09:45:07;15.07;;;8.25;;
25752;SDS011;13600;50.816;4.416;2023-06-19T09:50:11;13.15;;;8.55;;
25752;SDS011;13600;50.816;4.416;2023-06-19T09:52:42;17.55;;;9.80;;
25752;SDS011;13600;50.816;4.416;2023-06-19T09:55:09;13.52;;;8.55;;
25752;SDS011;13600;50.816;4.416;2023-06-19T09:57:38;12.93;;;7.85;;
25752;SDS011;13600;50.816;4.416;2023-06-19T10:00:08;11.93;;;8.77;;
25752;SDS011;13600;50.816;4.416;2023-06-19T10:02:37;15.02;;;8.95;;
25752;SDS011;13600;50.816;4.416;2023-06-19T10:05:07;14.30;;;9.50;;
25752;SDS011;13600;50.816;4.416;2023-06-19T10:07:36;14.85;;;9.73;;
25752;SDS011;13600;50.816;4.416;2023-06-19T10:12:41;14.27;;;8.15;;
25752;SDS011;13600;50.816;4.416;2023-06-19T10:17:45;12.40;;;8.32;;
25752;SDS011;13600;50.816;4.416;2023-06-19T10:20:31;13.10;;;7.30;;
25752;SDS011;13600;50.816;4.416;2023-06-19T10:25:30;10.25;;;6.95;;
25752;SDS011;13600;50.816;4.416;2023-06-19T10:27:58;11.20;;;7.43;;
25752;SDS011;13600;50.816;4.416;2023-06-19T10:30:24;10.88;;;7.00;;
25752;SDS011;13600;50.816;4.416;2023-06-19T10:32:50;14.13;;;7.57;;
25752;SDS011;13600;50.816;4.416;2023-06-19T10:35:17;10.88;;;6.55;;
25752;SDS011;13600;50.816;4.416;2023-06-19T10:37:46;10.23;;;7.13;;
25752;SDS011;13600;50.816;4.416;2023-06-19T10:40:13;13.38;;;8.05;;
25752;SDS011;13600;50.816;4.416;2023-06-19T10:42:47;12.35;;;7.68;;
25752;SDS011;13600;50.816;4.416;2023-06-19T10:45:14;12.82;;;7.13;;
25752;SDS011;13600;50.816;4.416;2023-06-19T10:47:43;12.02;;;6.88;;
25752;SDS011;13600;50.816;4.416;2023-06-19T10:50:13;11.02;;;6.60;;
25752;SDS011;13600;50.816;4.416;2023-06-19T10:52:40;10.48;;;6.47;;
25752;SDS011;13600;50.816;4.416;2023-06-19T10:55:09;13.43;;;7.63;;
25752;SDS011;13600;50.816;4.416;2023-06-19T10:57:36;15.35;;;8.55;;
25752;SDS011;13600;50.816;4.416;2023-06-19T11:00:03;13.75;;;7.72;;
25752;SDS011;13600;50.816;4.416;2023-06-19T11:02:47;14.23;;;8.35;;
25752;SDS011;13600;50.816;4.416;2023-06-19T11:05:12;11.93;;;8.02;;
25752;SDS011;13600;50.816;4.416;2023-06-19T11:07:39;13.10;;;7.95;;
25752;SDS011;13600;50.816;4.416;2023-06-19T11:10:05;12.15;;;8.25;;
25752;SDS011;13600;50.816;4.416;2023-06-19T11:12:31;13.25;;;8.10;;
25752;SDS011;13600;50.816;4.416;2023-06-19T11:15:02;12.93;;;7.10;;
25752;SDS011;13600;50.816;4.416;2023-06-19T11:17:29;9.77;;;6.78;;
25752;SDS011;13600;50.816;4.416;2023-06-19T11:19:56;11.65;;;7.03;;
25752;SDS011;13600;50.816;4.416;2023-06-19T11:22:34;10.02;;;6.32;;
25752;SDS011;13600;50.816;4.416;2023-06-19T11:25:04;9.35;;;6.50;;
25752;SDS011;13600;50.816;4.416;2023-06-19T11:27:30;9.55;;;5.88;;
25752;SDS011;13600;50.816;4.416;2023-06-19T11:29:57;10.52;;;6.10;;
25752;SDS011;13600;50.816;4.416;2023-06-19T11:32:24;10.40;;;5.75;;
25752;SDS011;13600;50.816;4.416;2023-06-19T11:34:56;7.28;;;5.57;;
25752;SDS011;13600;50.816;4.416;2023-06-19T11:37:22;8.02;;;5.50;;
25752;SDS011;13600;50.816;4.416;2023-06-19T11:39:49;7.88;;;5.50;;
25752;SDS011;13600;50.816;4.416;2023-06-19T11:42:17;9.50;;;5.60;;
25752;SDS011;13600;50.816;4.416;2023-06-19T11:44:53;8.40;;;5.22;;
25752;SDS011;13600;50.816;4.416;2023-06-19T11:47:20;11.18;;;5.10;;
25752;SDS011;13600;50.816;4.416;2023-06-19T11:49:50;10.07;;;5.47;;
25752;SDS011;13600;50.816;4.416;2023-06-19T11:52:16;6.43;;;5.00;;
25752;SDS011;13600;50.816;4.416;2023-06-19T11:54:42;7.43;;;5.25;;
25752;SDS011;13600;50.816;4.416;2023-06-19T11:57:10;7.70;;;5.10;;
25752;SDS011;13600;50.816;4.416;2023-06-19T11:59:38;10.35;;;5.05;;
25752;SDS011;13600;50.816;4.416;2023-06-19T12:02:05;7.38;;;5.15;;
25752;SDS011;13600;50.816;4.416;2023-06-19T12:04:30;10.98;;;5.10;;
25752;SDS011;13600;50.816;4.416;2023-06-19T12:06:56;8.93;;;4.95;;
25752;SDS011;13600;50.816;4.416;2023-06-19T12:09:22;7.78;;;4.80;;
25752;SDS011;13600;50.816;4.416;2023-06-19T12:11:48;9.57;;;5.00;;
25752;SDS011;13600;50.816;4.416;2023-06-19T12:14:13;9.23;;;4.80;;
25752;SDS011;13600;50.816;4.416;2023-06-19T12:16:39;6.75;;;4.88;;
25752;SDS011;13600;50.816;4.416;2023-06-19T12:19:05;6.25;;;4.63;;
25752;SDS011;13600;50.816;4.416;2023-06-19T12:21:31;7.05;;;4.78;;
25752;SDS011;13600;50.816;4.416;2023-06-19T12:23:56;7.13;;;5.15;;
25752;SDS011;13600;50.816;4.416;2023-06-19T12:26:22;7.50;;;4.43;;
25752;SDS011;13600;50.816;4.416;2023-06-19T12:28:50;9.15;;;4.53;;
25752;SDS011;13600;50.816;4.416;2023-06-19T12:31:16;8.52;;;4.82;;
25752;SDS011;13600;50.816;4.416;2023-06-19T12:33:43;6.88;;;4.47;;
25752;SDS011;13600;50.816;4.416;2023-06-19T12:36:12;6.93;;;4.70;;
25752;SDS011;13600;50.816;4.416;2023-06-19T12:38:39;7.38;;;4.32;;
25752;SDS011;13600;50.816;4.416;2023-06-19T12:41:05;6.47;;;4.78;;
25752;SDS011;13600;50.816;4.416;2023-06-19T12:43:31;8.30;;;4.72;;
25752;SDS011;13600;50.816;4.416;2023-06-19T12:45:57;6.03;;;4.72;;
25752;SDS011;13600;50.816;4.416;2023-06-19T12:48:24;7.47;;;4.50;;
25752;SDS011;13600;50.816;4.416;2023-06-19T12:50:50;7.82;;;4.88;;
25752;SDS011;13600;50.816;4.416;2023-06-19T12:53:16;5.65;;;4.25;;
25752;SDS011;13600;50.816;4.416;2023-06-19T12:55:42;6.68;;;4.57;;
25752;SDS011;13600;50.816;4.416;2023-06-19T12:58:08;6.05;;;4.32;;
25752;SDS011;13600;50.816;4.416;2023-06-19T13:00:34;6.38;;;4.22;;
25752;SDS011;13600;50.816;4.416;2023-06-19T13:02:59;5.80;;;4.15;;
25752;SDS011;13600;50.816;4.416;2023-06-19T13:05:25;6.90;;;4.53;;
25752;SDS011;13600;50.816;4.416;2023-06-19T13:07:51;6.57;;;4.15;;
25752;SDS011;13600;50.816;4.416;2023-06-19T13:10:17;6.70;;;4.40;;
25752;SDS011;13600;50.816;4.416;2023-06-19T13:12:42;6.70;;;4.10;;
25752;SDS011;13600;50.816;4.416;2023-06-19T13:15:08;8.65;;;4.13;;
25752;SDS011;13600;50.816;4.416;2023-06-19T13:17:34;7.90;;;4.15;;
25752;SDS011;13600;50.816;4.416;2023-06-19T13:20:00;7.53;;;4.22;;
25752;SDS011;13600;50.816;4.416;2023-06-19T13:22:26;5.22;;;4.03;;
25752;SDS011;13600;50.816;4.416;2023-06-19T13:24:54;8.18;;;4.28;;
25752;SDS011;13600;50.816;4.416;2023-06-19T13:27:19;6.47;;;3.60;;
25752;SDS011;13600;50.816;4.416;2023-06-19T13:29:47;4.90;;;4.10;;
25752;SDS011;13600;50.816;4.416;2023-06-19T13:32:14;6.00;;;3.97;;
25752;SDS011;13600;50.816;4.416;2023-06-19T13:34:40;5.45;;;3.92;;
25752;SDS011;13600;50.816;4.416;2023-06-19T13:37:08;5.68;;;3.65;;
25752;SDS011;13600;50.816;4.416;2023-06-19T13:39:34;5.97;;;3.58;;
25752;SDS011;13600;50.816;4.416;2023-06-19T13:42:02;7.22;;;3.95;;
25752;SDS011;13600;50.816;4.416;2023-06-19T13:44:27;8.55;;;3.75;;
25752;SDS011;13600;50.816;4.416;2023-06-19T13:46:55;7.30;;;4.00;;
25752;SDS011;13600;50.816;4.416;2023-06-19T13:49:21;4.95;;;3.60;;
25752;SDS011;13600;50.816;4.416;2023-06-19T13:51:52;5.25;;;3.42;;
25752;SDS011;13600;50.816;4.416;2023-06-19T13:54:20;5.28;;;4.07;;
25752;SDS011;13600;50.816;4.416;2023-06-19T13:56:49;4.22;;;3.28;;
25752;SDS011;13600;50.816;4.416;2023-06-19T13:59:18;10.38;;;3.60;;
25752;SDS011;13600;50.816;4.416;2023-06-19T14:01:48;5.68;;;3.80;;
25752;SDS011;13600;50.816;4.416;2023-06-19T14:04:13;6.63;;;3.70;;
25752;SDS011;13600;50.816;4.416;2023-06-19T14:06:40;6.97;;;3.88;;
25752;SDS011;13600;50.816;4.416;2023-06-19T14:09:11;5.30;;;4.28;;
25752;SDS011;13600;50.816;4.416;2023-06-19T14:11:37;5.85;;;3.90;;
25752;SDS011;13600;50.816;4.416;2023-06-19T14:14:08;5.95;;;4.10;;
25752;SDS011;13600;50.816;4.416;2023-06-19T14:16:34;6.65;;;3.85;;
25752;SDS011;13600;50.816;4.416;2023-06-19T14:19:00;5.35;;;3.80;;
25752;SDS011;13600;50.816;4.416;2023-06-19T14:21:26;6.90;;;3.45;;
25752;SDS011;13600;50.816;4.416;2023-06-19T14:23:52;6.85;;;3.63;;
25752;SDS011;13600;50.816;4.416;2023-06-19T14:26:18;7.57;;;3.72;;
25752;SDS011;13600;50.816;4.416;2023-06-19T14:28:43;7.25;;;3.33;;
25752;SDS011;13600;50.816;4.416;2023-06-19T14:31:09;5.55;;;3.70;;
25752;SDS011;13600;50.816;4.416;2023-06-19T14:33:34;8.15;;;3.42;;
25752;SDS011;13600;50.816;4.416;2023-06-19T14:36:02;5.72;;;3.40;;
25752;SDS011;13600;50.816;4.416;2023-06-19T14:38:28;5.95;;;3.70;;
25752;SDS011;13600;50.816;4.416;2023-06-19T14:40:58;5.68;;;3.63;;
25752;SDS011;13600;50.816;4.416;2023-06-19T14:43:25;5.80;;;4.00;;
25752;SDS011;13600;50.816;4.416;2023-06-19T14:45:51;4.35;;;3.33;;
25752;SDS011;13600;50.816;4.416;2023-06-19T14:48:17;5.15;;;3.80;;
25752;SDS011;13600;50.816;4.416;2023-06-19T14:50:43;6.38;;;3.80;;
25752;SDS011;13600;50.816;4.416;2023-06-19T14:53:09;5.75;;;3.25;;